createdAt,value
2023-11-23T00:00:17.934Z,52.47
2023-11-23T00:02:46.989Z,52.54
2023-11-23T00:05:15.903Z,52.60
2023-11-23T00:07:42.526Z,52.62
2023-11-23T00:10:11.902Z,52.57
2023-11-23T00:12:38.819Z,52.39
2023-11-23T00:15:08.296Z,52.51
2023-11-23T00:17:37.210Z,52.38
2023-11-23T00:20:07.253Z,52.49
2023-11-23T00:22:39.097Z,52.53
2023-11-23T00:25:06.365Z,52.50
2023-11-23T00:27:35.410Z,52.60
2023-11-23T00:30:08.069Z,52.22
2023-11-23T00:32:37.597Z,52.46
2023-11-23T00:35:04.794Z,52.67
2023-11-23T00:37:34.272Z,52.57
2023-11-23T00:40:01.025Z,52.68
2023-11-23T00:42:32.487Z,52.62
2023-11-23T00:44:59.148Z,52.52
2023-11-23T00:47:26.032Z,52.58
2023-11-23T00:49:55.153Z,52.52
2023-11-23T00:52:24.050Z,52.79
2023-11-23T00:54:53.227Z,52.69
2023-11-23T00:57:22.401Z,52.81
2023-11-23T00:59:51.368Z,52.88
2023-11-23T01:02:18.660Z,52.88
2023-11-23T01:04:48.459Z,52.93
2023-11-23T01:07:18.588Z,52.99
2023-11-23T01:09:45.389Z,52.84
2023-11-23T01:12:15.341Z,52.85
2023-11-23T01:14:44.378Z,52.95
2023-11-23T01:17:11.055Z,53.12
2023-11-23T01:19:37.799Z,53.12
2023-11-23T01:22:04.687Z,53.09
2023-11-23T01:24:34.342Z,53.24
2023-11-23T01:27:01.121Z,52.96
2023-11-23T01:29:28.244Z,53.24
2023-11-23T01:31:59.601Z,53.21
2023-11-23T01:34:26.429Z,53.44
2023-11-23T01:36:53.235Z,53.61
2023-11-23T01:39:22.116Z,53.82
2023-11-23T01:41:51.813Z,53.89
2023-11-23T01:44:20.857Z,54.19
2023-11-23T01:46:47.612Z,54.00
2023-11-23T01:49:16.606Z,54.18
2023-11-23T01:51:43.557Z,54.44
2023-11-23T01:54:11.433Z,54.32
2023-11-23T01:56:38.176Z,54.32
2023-11-23T01:59:05.419Z,54.32
2023-11-23T02:01:32.682Z,54.16
2023-11-23T02:03:59.936Z,54.22
2023-11-23T02:06:26.703Z,54.01
2023-11-23T02:08:54.416Z,53.95
2023-11-23T02:11:24.413Z,54.02
2023-11-23T02:13:53.324Z,54.26
2023-11-23T02:16:20.090Z,54.12
2023-11-23T02:18:47.157Z,54.33
2023-11-23T02:21:14.066Z,54.34
2023-11-23T02:23:43.032Z,54.22
2023-11-23T02:26:12.081Z,54.38
2023-11-23T02:28:38.781Z,54.20
2023-11-23T02:31:05.803Z,54.24
2023-11-23T02:33:33.178Z,54.49
2023-11-23T02:35:59.992Z,54.65
2023-11-23T02:38:28.844Z,54.48
2023-11-23T02:40:59.217Z,54.58
2023-11-23T02:43:26.890Z,54.91
2023-11-23T02:45:57.091Z,54.90
2023-11-23T02:48:26.252Z,54.71
2023-11-23T02:50:53.291Z,55.11
2023-11-23T02:53:31.128Z,55.25
2023-11-23T02:55:57.857Z,55.25
2023-11-23T02:58:29.900Z,55.17
2023-11-23T03:00:58.911Z,55.35
2023-11-23T03:03:26.032Z,55.17
2023-11-23T03:05:55.058Z,55.35
2023-11-23T03:08:21.750Z,55.25
2023-11-23T03:10:49.285Z,55.10
2023-11-23T03:13:15.992Z,55.21
2023-11-23T03:15:42.644Z,55.32
2023-11-23T03:18:12.882Z,55.44
2023-11-23T03:20:40.958Z,55.21
2023-11-23T03:23:09.982Z,55.13
2023-11-23T03:25:36.721Z,55.23
2023-11-23T03:28:05.432Z,55.26
2023-11-23T03:30:32.117Z,55.33
2023-11-23T03:32:58.827Z,55.23
2023-11-23T03:35:25.573Z,55.34
2023-11-23T03:37:53.212Z,55.30
2023-11-23T03:40:24.676Z,55.23
2023-11-23T03:42:51.358Z,55.32
2023-11-23T03:45:21.316Z,55.20
2023-11-23T03:47:48.506Z,55.05
2023-11-23T03:50:18.608Z,55.32
2023-11-23T03:52:45.361Z,55.46
2023-11-23T03:55:12.035Z,55.26
2023-11-23T03:57:41.942Z,55.08
2023-11-23T04:00:09.338Z,55.31
2023-11-23T04:02:39.281Z,55.24
2023-11-23T04:05:06.539Z,55.07
2023-11-23T04:07:33.536Z,55.25
2023-11-23T04:10:03.394Z,55.21
2023-11-23T04:12:30.053Z,55.01
2023-11-23T04:14:57.186Z,55.24
2023-11-23T04:17:23.999Z,55.16
2023-11-23T04:19:52.822Z,55.32
2023-11-23T04:22:21.827Z,55.19
2023-11-23T04:24:49.144Z,55.33
2023-11-23T04:27:16.174Z,55.28
2023-11-23T04:29:49.447Z,55.38
2023-11-23T04:32:18.454Z,55.21
2023-11-23T04:34:47.865Z,55.16
2023-11-23T04:37:14.520Z,55.33
2023-11-23T04:39:41.253Z,55.47
2023-11-23T04:42:12.956Z,55.50
2023-11-23T04:44:41.900Z,55.41
2023-11-23T04:47:08.606Z,55.44
2023-11-23T04:49:35.763Z,55.36
2023-11-23T04:52:05.189Z,55.39
2023-11-23T04:54:34.745Z,55.69
2023-11-23T04:57:03.930Z,55.50
2023-11-23T04:59:30.762Z,55.53
2023-11-23T05:01:57.983Z,55.50
2023-11-23T05:04:26.976Z,55.54
2023-11-23T05:06:56.906Z,55.53
2023-11-23T05:09:28.953Z,55.51
2023-11-23T05:11:59.021Z,55.49
2023-11-23T05:14:26.512Z,55.38
2023-11-23T05:16:55.478Z,55.46
2023-11-23T05:19:35.307Z,55.45
2023-11-23T05:22:06.665Z,55.22
2023-11-23T05:24:33.663Z,55.07
2023-11-23T05:27:00.520Z,55.34
2023-11-23T05:29:29.589Z,55.02
2023-11-23T05:31:58.386Z,54.80
2023-11-23T05:34:25.042Z,54.86
2023-11-23T05:36:51.715Z,55.09
2023-11-23T05:39:18.939Z,54.95
2023-11-23T05:41:46.081Z,54.89
2023-11-23T05:44:15.140Z,55.01
2023-11-23T05:46:41.970Z,55.18
2023-11-23T05:49:08.864Z,54.95
2023-11-23T05:51:37.949Z,54.90
2023-11-23T05:54:07.383Z,54.91
2023-11-23T05:56:36.964Z,55.13
2023-11-23T05:59:05.894Z,54.91
2023-11-23T06:01:35.747Z,55.01
2023-11-23T06:04:04.759Z,55.07
2023-11-23T06:06:33.669Z,55.18
2023-11-23T06:09:02.601Z,54.98
2023-11-23T06:11:29.366Z,54.94
2023-11-23T06:13:56.146Z,55.12
2023-11-23T06:16:22.913Z,55.16
2023-11-23T06:18:49.913Z,53.71
2023-11-23T06:21:17.888Z,48.79
2023-11-23T06:23:48.557Z,48.95
2023-11-23T06:26:15.366Z,48.99
2023-11-23T06:28:44.701Z,49.61
2023-11-23T06:31:16.010Z,50.29
2023-11-23T06:33:48.197Z,50.86
2023-11-23T06:36:17.394Z,50.63
2023-11-23T06:38:44.318Z,50.37
2023-11-23T06:41:26.740Z,51.26
2023-11-23T06:43:56.049Z,51.71
2023-11-23T06:46:23.135Z,52.65
2023-11-23T06:48:50.075Z,53.47
2023-11-23T06:51:19.126Z,54.53
2023-11-23T06:53:47.394Z,52.45
2023-11-23T06:56:16.816Z,52.09
2023-11-23T06:58:50.190Z,51.73
2023-11-23T07:01:17.788Z,51.63
2023-11-23T07:03:47.448Z,52.14
2023-11-23T07:06:17.658Z,52.24
2023-11-23T07:08:46.658Z,51.70
2023-11-23T07:11:19.017Z,52.54
2023-11-23T07:13:49.040Z,52.66
2023-11-23T07:16:18.083Z,52.67
2023-11-23T07:18:44.864Z,52.89
2023-11-23T07:21:11.824Z,52.69
2023-11-23T07:23:40.683Z,52.86
2023-11-23T07:26:10.433Z,52.99
2023-11-23T07:28:37.266Z,53.48
2023-11-23T07:31:04.510Z,53.38
2023-11-23T07:33:35.750Z,53.50
2023-11-23T07:36:05.751Z,53.60
2023-11-23T07:38:35.302Z,53.51
2023-11-23T07:41:06.421Z,53.58
2023-11-23T07:43:33.214Z,53.59
2023-11-23T07:46:01.244Z,53.66
2023-11-23T07:48:32.987Z,53.59
2023-11-23T07:50:59.704Z,53.65
2023-11-23T07:53:31.517Z,53.59
2023-11-23T07:55:58.766Z,53.52
2023-11-23T07:58:28.608Z,53.60
2023-11-23T08:00:55.562Z,53.58
2023-11-23T08:03:22.864Z,53.65
2023-11-23T08:05:51.791Z,53.66
2023-11-23T08:08:22.440Z,53.60
2023-11-23T08:10:49.747Z,53.82
2023-11-23T08:13:24.366Z,54.03
2023-11-23T08:15:55.023Z,53.80
2023-11-23T08:18:36.122Z,54.07
2023-11-23T08:21:10.322Z,53.97
2023-11-23T08:23:37.139Z,53.89
2023-11-23T08:26:05.120Z,54.10
2023-11-23T08:28:31.759Z,54.01
2023-11-23T08:30:58.745Z,53.98
2023-11-23T08:33:25.619Z,54.10
2023-11-23T08:35:54.785Z,54.04
2023-11-23T08:38:21.572Z,53.94
2023-11-23T08:41:01.772Z,54.50
2023-11-23T13:15:51.200Z,55.43
2023-11-23T13:18:20.595Z,55.42
2023-11-23T13:20:50.113Z,55.14
2023-11-23T13:23:17.243Z,55.31
2023-11-23T13:25:46.295Z,55.61
2023-11-23T13:28:16.048Z,55.65
2023-11-23T13:30:44.337Z,55.92
2023-11-23T13:33:17.032Z,55.89
2023-11-23T13:38:26.842Z,56.28
2023-11-23T13:40:55.147Z,55.85
2023-11-23T13:43:22.039Z,55.83
2023-11-23T13:45:50.873Z,55.94
2023-11-23T13:48:17.676Z,55.95
2023-11-23T13:50:44.880Z,56.39
2023-11-23T13:53:13.986Z,56.10
2023-11-23T13:55:40.704Z,56.17
2023-11-23T13:58:10.228Z,56.04
2023-11-23T14:00:36.876Z,55.91
2023-11-23T14:03:05.857Z,55.85
2023-11-23T14:05:32.612Z,55.80
2023-11-23T14:07:59.347Z,55.64
2023-11-23T14:10:28.864Z,55.57
2023-11-23T14:12:57.673Z,55.53
2023-11-23T14:15:25.725Z,55.19
2023-11-23T14:17:54.708Z,55.38
2023-11-23T14:20:25.186Z,55.29
2023-11-23T14:22:52.639Z,55.54
2023-11-23T14:25:21.750Z,55.35
2023-11-23T14:27:51.350Z,55.35
2023-11-23T14:30:18.585Z,55.06
2023-11-23T14:32:45.337Z,55.31
2023-11-23T14:35:16.398Z,55.01
2023-11-23T14:37:44.716Z,55.09
2023-11-23T14:40:16.032Z,55.07
2023-11-23T14:42:55.883Z,54.92
2023-11-23T14:45:25.295Z,55.00
2023-11-23T14:47:52.909Z,54.84
2023-11-23T14:50:22.407Z,54.87
2023-11-23T14:52:51.359Z,54.95
2023-11-23T14:55:18.197Z,54.86
2023-11-23T14:57:47.398Z,54.97
2023-11-23T15:00:14.308Z,54.84
2023-11-23T15:02:43.286Z,54.78
2023-11-23T15:05:13.802Z,54.89
2023-11-23T15:07:40.899Z,54.89
2023-11-23T15:10:13.020Z,54.79
2023-11-23T15:12:44.898Z,54.78
2023-11-23T15:15:14.218Z,54.83
2023-11-23T15:17:41.733Z,54.81
2023-11-23T15:20:08.672Z,54.83
2023-11-23T15:22:35.312Z,54.77
2023-11-23T15:25:09.884Z,55.07
2023-11-23T15:27:37.616Z,55.14
2023-11-23T15:30:05.800Z,55.19
2023-11-23T15:32:38.631Z,54.81
2023-11-23T15:35:06.929Z,54.85
2023-11-23T15:37:33.648Z,54.70
2023-11-23T15:40:00.881Z,54.69
2023-11-23T15:42:30.554Z,54.70
2023-11-23T15:44:57.400Z,54.76
2023-11-23T15:47:24.518Z,54.75
2023-11-23T15:49:51.305Z,54.82
2023-11-23T15:52:17.993Z,54.84
2023-11-23T15:54:44.617Z,54.79
2023-11-23T15:57:13.902Z,54.76
2023-11-23T15:59:42.779Z,54.68
2023-11-23T16:02:12.383Z,54.81
2023-11-23T16:04:39.333Z,54.70
2023-11-23T16:07:06.107Z,54.78
2023-11-23T16:09:32.750Z,54.79
2023-11-23T16:12:01.910Z,54.83
2023-11-23T16:14:30.945Z,54.83
2023-11-23T16:16:57.971Z,54.97
2023-11-23T16:19:28.681Z,54.94
2023-11-23T16:21:57.821Z,54.98
2023-11-23T16:24:27.688Z,54.87
2023-11-23T16:26:54.527Z,54.98
2023-11-23T16:29:23.525Z,54.97
2023-11-23T16:31:52.811Z,55.02
2023-11-23T16:34:19.567Z,55.01
2023-11-23T16:36:46.950Z,55.06
2023-11-23T16:39:16.644Z,55.05
2023-11-23T16:41:45.129Z,55.08
2023-11-23T16:44:13.833Z,55.06
2023-11-23T16:46:42.782Z,55.00
2023-11-23T16:49:12.450Z,54.84
2023-11-23T16:51:39.396Z,54.98
2023-11-23T16:54:07.479Z,55.13
2023-11-23T16:56:34.168Z,54.87
2023-11-23T16:59:03.210Z,54.87
2023-11-23T17:01:29.832Z,54.77
2023-11-23T17:03:56.896Z,54.79
2023-11-23T17:06:26.019Z,54.89
2023-11-23T17:08:52.717Z,54.93
2023-11-23T17:11:21.993Z,54.89
2023-11-23T17:13:51.430Z,54.93
2023-11-23T17:16:18.323Z,54.92
2023-11-23T17:18:45.081Z,54.96
2023-11-23T17:21:11.890Z,54.81
2023-11-23T17:23:43.073Z,54.71
2023-11-23T17:26:15.333Z,54.90
2023-11-23T17:28:44.928Z,54.69
2023-11-23T17:31:11.601Z,54.82
2023-11-23T17:33:40.256Z,54.65
2023-11-23T17:36:07.242Z,54.76
2023-11-23T17:38:35.422Z,54.54
2023-11-23T17:41:02.108Z,54.59
2023-11-23T17:43:28.800Z,54.81
2023-11-23T17:45:55.569Z,54.87
2023-11-23T17:48:25.221Z,55.11
2023-11-23T17:50:52.069Z,55.00
2023-11-23T17:53:18.616Z,54.94
2023-11-23T17:55:45.905Z,54.94
2023-11-23T17:58:12.537Z,55.21
2023-11-23T18:00:41.979Z,55.44
2023-11-23T18:03:08.747Z,55.90
2023-11-23T18:05:40.104Z,56.10
2023-11-23T18:08:09.840Z,55.98
2023-11-23T18:10:39.526Z,55.93
2023-11-23T18:13:11.535Z,55.96
2023-11-23T18:15:38.273Z,56.26
2023-11-23T18:18:12.607Z,56.24
2023-11-23T18:20:45.140Z,56.65
2023-11-23T18:23:11.836Z,56.58
2023-11-23T18:25:43.438Z,56.71
2023-11-23T18:28:10.181Z,57.07
2023-11-23T18:30:36.925Z,56.62
2023-11-23T18:33:07.012Z,57.06
2023-11-23T18:35:36.016Z,57.38
2023-11-23T18:38:07.110Z,57.78
2023-11-23T18:40:36.841Z,57.73
2023-11-23T18:43:05.737Z,57.91
2023-11-23T18:45:34.414Z,57.74
2023-11-23T18:48:01.385Z,57.84
2023-11-23T18:50:28.151Z,58.26
2023-11-23T18:52:54.878Z,58.36
2023-11-23T18:55:21.640Z,58.16
2023-11-23T18:57:48.333Z,58.11
2023-11-23T19:00:15.176Z,58.14
2023-11-23T19:02:44.584Z,58.13
2023-11-23T19:05:16.584Z,58.22
2023-11-23T19:07:43.316Z,58.13
2023-11-23T19:10:15.591Z,57.83
2023-11-23T19:12:51.895Z,58.32
2023-11-23T19:15:24.584Z,58.10
2023-11-23T19:17:54.173Z,58.36
2023-11-23T19:20:20.971Z,58.32
2023-11-23T19:22:47.679Z,57.93
2023-11-23T19:25:14.420Z,57.89
2023-11-23T19:27:42.127Z,57.97
2023-11-23T19:30:09.244Z,57.67
2023-11-23T19:32:36.091Z,57.95
2023-11-23T19:35:03.121Z,58.03
2023-11-23T19:37:30.270Z,57.56
2023-11-23T19:39:58.348Z,57.67
2023-11-23T19:42:26.756Z,57.48
2023-11-23T19:44:56.577Z,57.58
2023-11-23T19:47:23.620Z,57.67
2023-11-23T19:49:50.334Z,57.60
2023-11-23T19:52:36.923Z,57.45
2023-11-23T19:55:04.172Z,57.50
2023-11-23T19:57:30.844Z,57.49
2023-11-23T19:59:58.292Z,57.45
2023-11-23T20:02:25.690Z,57.50
2023-11-23T20:04:52.796Z,57.34
2023-11-23T20:07:19.510Z,57.21
2023-11-23T20:09:46.308Z,57.02
2023-11-23T20:12:13.317Z,56.90
2023-11-23T20:14:40.193Z,57.03
2023-11-23T20:17:08.137Z,57.25
2023-11-23T20:19:36.981Z,57.02
2023-11-23T20:22:03.729Z,57.04
2023-11-23T20:24:30.411Z,57.17
2023-11-23T20:27:00.700Z,47.74
2023-11-23T20:29:27.291Z,49.29
2023-11-23T20:31:56.190Z,51.06
2023-11-23T20:34:25.254Z,51.35
2023-11-23T20:36:51.925Z,52.64
2023-11-23T20:39:21.277Z,53.85
2023-11-23T20:41:49.261Z,54.15
2023-11-23T20:44:15.872Z,54.63
2023-11-23T20:46:42.637Z,54.36
2023-11-23T20:49:12.169Z,54.54
2023-11-23T20:51:41.445Z,54.38
2023-11-23T20:54:08.989Z,54.57
2023-11-23T20:56:36.330Z,54.66
2023-11-23T20:59:05.617Z,54.62
2023-11-23T21:01:36.325Z,54.40
2023-11-23T21:04:05.880Z,54.56
2023-11-23T21:06:32.813Z,54.60
2023-11-23T21:08:59.774Z,54.67
2023-11-23T21:11:31.000Z,54.68
2023-11-23T21:13:57.612Z,54.82
2023-11-23T21:16:24.346Z,54.83
2023-11-23T21:18:53.336Z,55.01
2023-11-23T21:21:20.111Z,54.98
2023-11-23T21:23:47.089Z,54.94
2023-11-23T21:26:13.848Z,54.78
2023-11-23T21:28:40.680Z,54.91
2023-11-23T21:31:08.108Z,54.75
2023-11-23T21:33:34.891Z,54.72
2023-11-23T21:36:07.159Z,54.82
2023-11-23T21:38:34.192Z,54.80
2023-11-23T21:41:00.771Z,54.73
2023-11-23T21:43:27.304Z,54.68
2023-11-23T21:45:54.002Z,54.68
2023-11-23T21:48:23.090Z,54.66
2023-11-23T21:50:50.745Z,54.72
2023-11-23T21:53:19.881Z,54.60
2023-11-23T21:55:46.510Z,54.73
2023-11-23T21:58:13.586Z,54.62
2023-11-23T22:00:40.239Z,54.51
2023-11-23T22:03:07.036Z,54.66
2023-11-23T22:05:36.007Z,54.65
2023-11-23T22:08:02.612Z,54.61
2023-11-23T22:10:29.482Z,54.32
2023-11-23T22:12:58.485Z,54.41
2023-11-23T22:15:25.175Z,54.39
2023-11-23T22:17:54.438Z,54.40
2023-11-23T22:20:21.615Z,54.33
2023-11-23T22:22:48.722Z,54.31
2023-11-23T22:25:17.749Z,54.31
2023-11-23T22:27:44.675Z,54.23
2023-11-23T22:30:11.469Z,54.40
2023-11-23T22:32:40.324Z,54.38
2023-11-23T22:35:07.260Z,47.87
2023-11-23T22:37:36.385Z,47.55
2023-11-23T22:40:03.281Z,47.34
2023-11-23T22:42:33.370Z,46.54
2023-11-23T22:45:00.467Z,48.93
2023-11-23T22:47:44.207Z,51.79
2023-11-23T22:50:14.188Z,52.42
2023-11-23T22:52:41.039Z,53.98
2023-11-23T22:55:08.402Z,53.67
2023-11-23T22:57:37.523Z,54.11
2023-11-23T23:00:11.326Z,54.07
2023-11-23T23:02:38.235Z,54.63
2023-11-23T23:05:06.214Z,54.92
2023-11-23T23:07:34.922Z,54.57
2023-11-23T23:10:22.794Z,54.73
2023-11-23T23:12:49.680Z,55.04
2023-11-23T23:15:20.001Z,54.86
2023-11-23T23:17:47.272Z,55.09
2023-11-23T23:20:16.343Z,55.26
2023-11-23T23:22:43.208Z,55.01
2023-11-23T23:25:10.332Z,55.17
2023-11-23T23:27:37.284Z,55.07
2023-11-23T23:30:07.380Z,55.27
2023-11-23T23:32:34.642Z,55.29
2023-11-23T23:35:01.799Z,55.32
2023-11-23T23:37:31.343Z,55.52
2023-11-23T23:39:58.311Z,55.52
2023-11-23T23:42:27.169Z,55.45
2023-11-23T23:44:57.355Z,55.35
2023-11-23T23:47:24.589Z,55.47
2023-11-23T23:49:51.439Z,55.51
2023-11-23T23:52:18.355Z,55.39
2023-11-23T23:54:50.325Z,55.63
2023-11-23T23:57:17.368Z,55.73
2023-11-23T23:59:44.198Z,55.45
